Gao Qiang — VRVQ8 — position and weather

sailwx.info

Track history (hours):
 
Tides and Currents Weather Stations Pressure Air Temp Water Temp Dewpoint Dewpoint Depression Visibility Wind Speed Wind Dir Waves Ship Positions

Gao Qiang

Last reported at 2017-Mar-20 00:20 UTC. Time now 2017-Mar-25 15:32 UTC.
Position N 38°57' E 015°22'.

Length 186 m; draft 7.2 m.

Type: Cargo ship. MMSI: 477611000.

Date/timePositionNaut miles runAvg speedWind from/ knotsBaromVisibWave heightAir tempDewpointWater temp
2017-Mar-20 00:20N 38°57' E 015°22'1113.3
2017-Mar-19 23:33N 38°47' E 015°27'1313.6
2017-Mar-19 22:33N 38°35' E 015°34'1413.8
2017-Mar-19 21:33N 38°22' E 015°40'1110.6
2017-Mar-19 20:33N 38°12' E 015°37'9 8.6
2017-Mar-19 19:33N 38°04' E 015°35'10 9.9
2017-Mar-19 18:33N 37°54' E 015°40'376 9.3
2017-Mar-18 02:05N 43°59' E 013°38'713.7
2017-Mar-18 01:33N 44°03' E 013°29'1413.9
2017-Mar-18 00:33N 44°11' E 013°13'1413.8
2017-Mar-17 23:33N 44°19' E 012°58'1413.5
2017-Mar-17 22:33N 44°27' E 012°43'1312.8
2017-Mar-17 21:33N 44°30' E 012°25'7 7.1
2017-Mar-17 20:33N 44°28' E 012°15'2 0.4
2017-Mar-17 16:23N 44°26' E 012°15'0 0.0
2017-Mar-17 15:29N 44°26' E 012°15'0 0.0
2017-Mar-17 14:29N 44°26' E 012°15'1 0.1
2017-Mar-17 06:34N 44°27' E 012°15'5 5.5
2017-Mar-17 05:33N 44°30' E 012°22'8 8.3
2017-Mar-17 04:34N 44°30' E 012°33'7 7.2
2017-Mar-17 03:33N 44°30' E 012°43'0 0.3
2017-Mar-17 02:34N 44°29' E 012°44'7 7.5
2017-Mar-17 01:33N 44°25' E 012°52'1312.9
2017-Mar-17 00:33N 44°19' E 013°08'1313.0
2017-Mar-16 23:33N 44°12' E 013°23'1313.2
2017-Mar-16 22:33N 44°04' E 013°38'1313.2
2017-Mar-16 21:33N 43°56' E 013°53'1813.2
2017-Mar-16 20:11N 43°48' E 014°15'  
2017-Mar-10 16:14N 33°55' E 035°22'1012.5
2017-Mar-10 15:25N 33°53' E 035°10'1112.3
2017-Mar-10 14:33N 33°49' E 034°59'1212.5
2017-Mar-10 13:33N 33°39' E 034°49'1212.2
2017-Mar-10 12:33N 33°30' E 034°39'  
Track history (hours):
 
Tides and Currents Weather Stations Pressure Air Temp Water Temp Dewpoint Dewpoint Depression Visibility Wind Speed Wind Dir Waves Ship Positions

Gao Qiang

Last reported at 2017-Mar-20 00:20 UTC. Time now 2017-Mar-25 15:32 UTC.
Position N 38°57' E 015°22'.

Length 186 m; draft 7.2 m.

Type: Cargo ship. MMSI: 477611000.

Date/timePositionNaut miles runAvg speedWind from/ knotsBaromVisibWave heightAir tempDewpointWater temp
2017-Mar-20 00:20N 38°57' E 015°22'1113.3
2017-Mar-19 23:33N 38°47' E 015°27'1313.6
2017-Mar-19 22:33N 38°35' E 015°34'1413.8
2017-Mar-19 21:33N 38°22' E 015°40'1110.6
2017-Mar-19 20:33N 38°12' E 015°37'9 8.6
2017-Mar-19 19:33N 38°04' E 015°35'10 9.9
2017-Mar-19 18:33N 37°54' E 015°40'376 9.3
2017-Mar-18 02:05N 43°59' E 013°38'713.7
2017-Mar-18 01:33N 44°03' E 013°29'1413.9
2017-Mar-18 00:33N 44°11' E 013°13'1413.8
2017-Mar-17 23:33N 44°19' E 012°58'1413.5
2017-Mar-17 22:33N 44°27' E 012°43'1312.8
2017-Mar-17 21:33N 44°30' E 012°25'7 7.1
2017-Mar-17 20:33N 44°28' E 012°15'2 0.4
2017-Mar-17 16:23N 44°26' E 012°15'0 0.0
2017-Mar-17 15:29N 44°26' E 012°15'0 0.0
2017-Mar-17 14:29N 44°26' E 012°15'1 0.1
2017-Mar-17 06:34N 44°27' E 012°15'5 5.5
2017-Mar-17 05:33N 44°30' E 012°22'8 8.3
2017-Mar-17 04:34N 44°30' E 012°33'7 7.2
2017-Mar-17 03:33N 44°30' E 012°43'0 0.3
2017-Mar-17 02:34N 44°29' E 012°44'7 7.5
2017-Mar-17 01:33N 44°25' E 012°52'1312.9
2017-Mar-17 00:33N 44°19' E 013°08'1313.0
2017-Mar-16 23:33N 44°12' E 013°23'1313.2
2017-Mar-16 22:33N 44°04' E 013°38'1313.2
2017-Mar-16 21:33N 43°56' E 013°53'1813.2
2017-Mar-16 20:11N 43°48' E 014°15'  
2017-Mar-10 16:14N 33°55' E 035°22'1012.5
2017-Mar-10 15:25N 33°53' E 035°10'1112.3
2017-Mar-10 14:33N 33°49' E 034°59'1212.5
2017-Mar-10 13:33N 33°39' E 034°49'1212.2
2017-Mar-10 12:33N 33°30' E 034°39'  

Dump ship's entire track history